createdAt,value
2023-04-18T00:00:16.147Z,86.4728
2023-04-18T00:01:16.630Z,86.4577
2023-04-18T00:02:17.349Z,86.5705
2023-04-18T00:03:18.590Z,86.1804
2023-04-18T00:04:21.079Z,86.2770
2023-04-18T00:05:22.366Z,86.0878
2023-04-18T00:06:22.875Z,86.5731
2023-04-18T00:07:23.382Z,86.0359
2023-04-18T00:08:23.864Z,86.6840
2023-04-18T00:09:24.473Z,86.7192
2023-04-18T00:10:24.948Z,85.7975
2023-04-18T00:11:25.499Z,86.3553
2023-04-18T00:12:26.022Z,87.0862
2023-04-18T00:13:26.488Z,86.4625
2023-04-18T00:14:27.005Z,86.3507
2023-04-18T00:15:27.439Z,86.2776
2023-04-18T00:16:28.155Z,86.1548
2023-04-18T00:17:28.676Z,86.1719
2023-04-18T00:18:29.169Z,86.6532
2023-04-18T00:19:29.642Z,86.6381
2023-04-18T00:20:30.130Z,84.8354
2023-04-18T00:21:30.568Z,85.2344
2023-04-18T00:22:31.037Z,85.6870
2023-04-18T00:23:31.659Z,85.6699
2023-04-18T00:24:32.148Z,87.0778
2023-04-18T00:25:32.696Z,86.3781
2023-04-18T00:26:33.120Z,85.9751
2023-04-18T00:27:33.669Z,86.3349
2023-04-18T00:28:34.209Z,86.0647
2023-04-18T00:29:35.728Z,86.4353
2023-04-18T00:30:36.319Z,85.5475
2023-04-18T00:31:36.824Z,86.9479
2023-04-18T00:32:37.344Z,86.3119
2023-04-18T00:33:37.842Z,84.9688
2023-04-18T00:34:38.332Z,86.4206
2023-04-18T00:35:38.813Z,87.0804
2023-04-18T00:36:39.291Z,86.8760
2023-04-18T00:37:39.746Z,85.9034
2023-04-18T00:38:40.309Z,85.6439
2023-04-18T00:39:40.879Z,86.2452
2023-04-18T00:40:41.443Z,85.5451
2023-04-18T00:41:41.967Z,86.7044
2023-04-18T00:42:42.591Z,85.7803
2023-04-18T00:43:43.280Z,86.5338
2023-04-18T00:44:43.810Z,87.4722
2023-04-18T00:45:44.286Z,86.5688
2023-04-18T00:46:44.803Z,85.6277
2023-04-18T00:47:45.398Z,86.3920
2023-04-18T00:48:45.886Z,85.2954
2023-04-18T00:49:46.373Z,85.4517
2023-04-18T00:50:46.852Z,85.6508
2023-04-18T00:51:47.413Z,85.4277
2023-04-18T00:52:47.940Z,86.2262
2023-04-18T00:53:48.575Z,87.6314
2023-04-18T00:54:49.242Z,86.7759
2023-04-18T00:55:49.744Z,85.1325
2023-04-18T00:56:50.207Z,85.7713
2023-04-18T00:57:50.754Z,86.1570
2023-04-18T00:58:51.196Z,87.1219
2023-04-18T00:59:51.693Z,86.5882
2023-04-18T01:00:52.164Z,86.7337
2023-04-18T01:01:52.741Z,85.9972
2023-04-18T01:02:54.054Z,85.7560
2023-04-18T01:03:55.088Z,86.5038
2023-04-18T01:04:55.805Z,86.1992
2023-04-18T01:05:56.413Z,86.4890
2023-04-18T01:06:56.891Z,86.8044
2023-04-18T01:07:57.340Z,86.3887
2023-04-18T01:08:57.813Z,86.4047
2023-04-18T01:09:58.275Z,86.6158
2023-04-18T01:10:58.705Z,87.0391
2023-04-18T01:11:59.219Z,87.3670
2023-04-18T01:12:59.652Z,86.4670
2023-04-18T01:14:00.113Z,86.5918
2023-04-18T01:15:00.636Z,86.6433
2023-04-18T01:16:01.134Z,86.7084
2023-04-18T01:17:01.587Z,86.4692
2023-04-18T01:18:02.113Z,86.2634
2023-04-18T01:19:02.660Z,85.8446
2023-04-18T01:20:03.209Z,86.8352
2023-04-18T01:21:03.665Z,86.4559
2023-04-18T01:22:04.217Z,85.8770
2023-04-18T01:23:04.652Z,87.0684
2023-04-18T01:24:05.144Z,86.6495
2023-04-18T01:25:05.608Z,85.8448
2023-04-18T01:26:06.025Z,86.3593
2023-04-18T01:27:06.510Z,86.8840
2023-04-18T01:28:06.985Z,86.0475
2023-04-18T01:29:07.438Z,86.4773
2023-04-18T01:30:07.914Z,86.5754
2023-04-18T01:31:08.395Z,86.7631
2023-04-18T01:32:08.850Z,86.1628
2023-04-18T01:33:09.341Z,85.6843
2023-04-18T01:34:09.850Z,87.3894
2023-04-18T01:35:10.324Z,87.0123
2023-04-18T01:36:10.831Z,86.3639
2023-04-18T01:37:11.396Z,85.8600
2023-04-18T01:38:11.881Z,85.4997
2023-04-18T01:39:12.443Z,86.8158
2023-04-18T01:40:12.904Z,87.6738
2023-04-18T01:41:13.426Z,86.4120
2023-04-18T01:42:13.894Z,86.9510
2023-04-18T01:43:14.344Z,86.8005
2023-04-18T01:44:15.299Z,86.5634
2023-04-18T01:45:16.118Z,86.3314
2023-04-18T01:46:16.617Z,86.9155
2023-04-18T01:47:17.083Z,86.3072
2023-04-18T01:48:17.512Z,87.2101
2023-04-18T01:49:18.011Z,86.2469
2023-04-18T01:50:18.556Z,85.9375
2023-04-18T01:51:19.118Z,85.6206
2023-04-18T01:52:19.628Z,85.8033
2023-04-18T01:53:20.059Z,85.7527
2023-04-18T01:54:20.597Z,85.7416
2023-04-18T01:55:21.112Z,85.9606
2023-04-18T01:56:21.768Z,86.3134
2023-04-18T01:57:22.549Z,85.8035
2023-04-18T01:58:23.344Z,85.8587
2023-04-18T01:59:23.829Z,85.9908
2023-04-18T02:00:24.384Z,86.3898
2023-04-18T02:01:25.039Z,87.0264
2023-04-18T02:02:25.849Z,87.0771
2023-04-18T02:03:26.868Z,87.3751
2023-04-18T02:04:27.743Z,85.7478
2023-04-18T02:05:28.278Z,86.1406
2023-04-18T02:06:28.804Z,86.1006
2023-04-18T02:07:29.361Z,86.1256
2023-04-18T02:08:29.862Z,86.1922
2023-04-18T02:09:30.470Z,87.3784
2023-04-18T02:10:30.961Z,87.4983
2023-04-18T02:11:31.560Z,86.5349
2023-04-18T02:12:32.135Z,86.4245
2023-04-18T02:13:32.715Z,87.5571
2023-04-18T02:14:33.245Z,87.5696
2023-04-18T02:15:33.833Z,87.8611
2023-04-18T02:16:34.425Z,88.0389
2023-04-18T02:17:35.100Z,86.9815
2023-04-18T02:18:35.745Z,86.8211
2023-04-18T02:19:36.275Z,86.5267
2023-04-18T02:20:36.806Z,86.6088
2023-04-18T02:21:37.304Z,86.2548
2023-04-18T02:22:37.886Z,86.1801
2023-04-18T02:23:38.403Z,86.2636
2023-04-18T02:24:38.969Z,87.1471
2023-04-18T02:25:39.500Z,87.3272
2023-04-18T02:26:40.073Z,86.9239
2023-04-18T02:27:40.621Z,86.8271
2023-04-18T02:28:41.146Z,87.0141
2023-04-18T02:29:41.679Z,87.5450
2023-04-18T02:30:42.187Z,86.9301
2023-04-18T02:31:42.864Z,87.1951
2023-04-18T02:32:43.426Z,87.0956
2023-04-18T02:33:43.949Z,86.5450
2023-04-18T02:34:44.522Z,87.5007
2023-04-18T02:35:45.094Z,88.2037
2023-04-18T02:36:45.673Z,87.3849
2023-04-18T02:37:46.262Z,87.9607
2023-04-18T02:38:47.076Z,87.4867
2023-04-18T02:39:47.655Z,86.2879
2023-04-18T02:40:48.208Z,86.7017
2023-04-18T02:41:48.789Z,86.9119
2023-04-18T02:42:49.299Z,87.1931
2023-04-18T02:43:49.848Z,86.7102
2023-04-18T02:44:50.344Z,86.7331
2023-04-18T02:45:50.976Z,88.0165
2023-04-18T02:46:51.624Z,87.4533
2023-04-18T02:47:57.011Z,87.5469
2023-04-18T02:48:52.771Z,88.1941
2023-04-18T02:49:53.337Z,86.6120
2023-04-18T02:50:53.927Z,87.2796
2023-04-18T02:51:54.524Z,86.8584
2023-04-18T02:52:55.082Z,87.6978
2023-04-18T02:53:55.636Z,87.4974
2023-04-18T02:54:56.212Z,87.2897
2023-04-18T02:55:56.735Z,87.4842
2023-04-18T02:56:57.423Z,86.9663
2023-04-18T02:57:57.949Z,86.9908
2023-04-18T02:58:58.495Z,87.0347
2023-04-18T02:59:59.035Z,86.5881
2023-04-18T03:00:59.688Z,87.6974
2023-04-18T03:02:00.333Z,86.8316
2023-04-18T03:03:00.967Z,86.9619
2023-04-18T03:04:01.462Z,87.2235
2023-04-18T03:05:02.020Z,87.4484
2023-04-18T03:06:02.565Z,86.4861
2023-04-18T03:07:03.154Z,87.4793
2023-04-18T03:08:03.831Z,87.8530
2023-04-18T03:09:04.636Z,86.8321
2023-04-18T03:10:05.205Z,87.6881
2023-04-18T03:11:05.682Z,87.9417
2023-04-18T03:12:06.401Z,86.7530
2023-04-18T03:13:06.907Z,86.6465
2023-04-18T03:14:07.422Z,86.4808
2023-04-18T03:15:08.014Z,86.4266
2023-04-18T03:16:08.706Z,87.1435
2023-04-18T03:17:09.219Z,87.4117
2023-04-18T03:18:09.774Z,87.1266
2023-04-18T03:19:10.351Z,87.8096
2023-04-18T03:20:10.875Z,88.0107
2023-04-18T03:21:11.467Z,87.6537
2023-04-18T03:22:12.022Z,87.3110
2023-04-18T03:23:12.561Z,86.8904
2023-04-18T03:24:14.353Z,87.4308
2023-04-18T03:25:15.142Z,87.3099
2023-04-18T03:26:15.676Z,86.7996
2023-04-18T03:27:16.216Z,86.7480
2023-04-18T03:28:16.785Z,87.6451
2023-04-18T03:29:17.380Z,86.7857
2023-04-18T03:30:17.889Z,86.8321
2023-04-18T03:31:18.583Z,86.9102
2023-04-18T03:32:19.320Z,87.4589
2023-04-18T03:33:19.973Z,87.5737
2023-04-18T03:34:20.471Z,86.9548
2023-04-18T03:35:20.992Z,86.7942
2023-04-18T03:36:21.548Z,87.2249
2023-04-18T03:37:22.123Z,87.4017
2023-04-18T03:38:22.896Z,87.6499
2023-04-18T03:39:23.440Z,87.6713
2023-04-18T03:40:24.012Z,86.5508
2023-04-18T03:41:24.537Z,87.3579
2023-04-18T03:42:25.192Z,87.3361
2023-04-18T03:43:25.724Z,87.5834
2023-04-18T03:44:26.306Z,87.4469
2023-04-18T03:45:26.832Z,87.7551
2023-04-18T03:46:27.398Z,87.2867
2023-04-18T03:47:27.940Z,87.0870
2023-04-18T03:48:28.461Z,86.6507
2023-04-18T03:49:28.983Z,87.0461
2023-04-18T03:50:29.568Z,87.0801
2023-04-18T03:51:30.117Z,86.7224
2023-04-18T03:52:30.713Z,87.1842
2023-04-18T03:53:31.221Z,87.5205
2023-04-18T03:54:31.721Z,86.7942
2023-04-18T03:55:32.280Z,87.0218
2023-04-18T03:56:32.818Z,87.2707
2023-04-18T03:57:33.440Z,87.0551
2023-04-18T03:58:33.971Z,86.7837
2023-04-18T03:59:34.512Z,87.3456
2023-04-18T04:00:35.068Z,87.7589
2023-04-18T04:01:35.695Z,87.3567
2023-04-18T04:02:36.703Z,86.9809
2023-04-18T04:03:37.781Z,87.1507
2023-04-18T04:04:38.638Z,87.4300
2023-04-18T04:05:39.174Z,86.8379
2023-04-18T04:06:39.756Z,86.7846
2023-04-18T04:07:40.385Z,86.8003
2023-04-18T04:08:40.901Z,86.8110
2023-04-18T04:09:41.485Z,86.4606
2023-04-18T04:10:41.992Z,85.9334
2023-04-18T04:11:42.585Z,86.9052
2023-04-18T04:12:43.140Z,86.4836
2023-04-18T04:13:43.711Z,87.0348
2023-04-18T04:14:44.332Z,86.9089
2023-04-18T04:15:44.960Z,86.4181
2023-04-18T04:16:45.607Z,87.6634
2023-04-18T04:17:46.483Z,86.4862
2023-04-18T04:18:47.032Z,87.2321
2023-04-18T04:19:47.574Z,86.8351
2023-04-18T04:20:48.281Z,86.7160
2023-04-18T04:21:48.831Z,86.4027
2023-04-18T04:22:49.395Z,86.8281
2023-04-18T04:23:50.079Z,86.7893
2023-04-18T04:24:50.689Z,86.8179
2023-04-18T04:25:51.274Z,86.3540
2023-04-18T04:26:51.917Z,87.0588
2023-04-18T04:27:52.481Z,87.4352
2023-04-18T04:28:53.079Z,86.5045
2023-04-18T04:29:53.594Z,87.3102
2023-04-18T04:30:54.154Z,87.8319
2023-04-18T04:31:54.802Z,87.3479
2023-04-18T04:32:55.470Z,86.8666
2023-04-18T04:33:56.083Z,87.5677
2023-04-18T04:34:56.690Z,87.2771
2023-04-18T04:35:57.323Z,87.4994
2023-04-18T04:36:57.880Z,87.6739
2023-04-18T04:37:58.475Z,87.1141
2023-04-18T04:38:59.020Z,86.7981
2023-04-18T04:39:59.588Z,86.8527
2023-04-18T04:41:00.111Z,87.2601
2023-04-18T04:42:01.081Z,87.3206
2023-04-18T04:43:01.676Z,86.4954
2023-04-18T04:44:02.287Z,86.4113
2023-04-18T04:45:02.895Z,85.9436
2023-04-18T04:46:03.491Z,87.5685
2023-04-18T04:47:04.149Z,87.7175
2023-04-18T04:48:04.766Z,86.5740
2023-04-18T04:49:05.298Z,87.0987
2023-04-18T04:50:05.853Z,88.1710
2023-04-18T04:51:06.428Z,88.0955
2023-04-18T04:52:06.943Z,88.0811
2023-04-18T04:53:07.555Z,87.4531
2023-04-18T04:54:08.084Z,87.2618
2023-04-18T04:55:08.670Z,87.8259
2023-04-18T04:56:09.438Z,87.5350
2023-04-18T04:57:10.060Z,87.0819
2023-04-18T04:58:10.578Z,86.8058
2023-04-18T04:59:11.096Z,86.9965
2023-04-18T05:00:11.614Z,87.3768
2023-04-18T05:01:12.246Z,87.1191
2023-04-18T05:02:13.012Z,87.1235
2023-04-18T05:03:14.072Z,87.2253
2023-04-18T05:04:16.079Z,87.2552
2023-04-18T05:05:17.093Z,87.2648
2023-04-18T05:06:17.693Z,87.3503
2023-04-18T05:07:18.284Z,88.1042
2023-04-18T05:08:18.904Z,87.3738
2023-04-18T05:09:19.511Z,86.6013
2023-04-18T05:10:20.069Z,86.8395
2023-04-18T05:11:20.722Z,87.2429
2023-04-18T05:12:21.234Z,86.8617
2023-04-18T05:13:21.822Z,86.7163
2023-04-18T05:14:22.412Z,87.0634
2023-04-18T05:15:23.055Z,87.5737
2023-04-18T05:16:23.788Z,87.8323
2023-04-18T05:17:24.392Z,87.5593
2023-04-18T05:18:25.047Z,87.6345
2023-04-18T05:19:25.627Z,87.7350
2023-04-18T05:20:26.395Z,86.9611
2023-04-18T05:21:26.929Z,86.7153
2023-04-18T05:22:27.540Z,86.7756
2023-04-18T05:23:28.128Z,87.7370
2023-04-18T05:24:28.719Z,87.5380
2023-04-18T05:25:29.296Z,87.6532
2023-04-18T05:26:29.826Z,87.2205
2023-04-18T05:27:30.386Z,86.7433
2023-04-18T05:28:31.061Z,87.4401
2023-04-18T05:29:31.641Z,87.1476
2023-04-18T05:30:32.334Z,87.3459
2023-04-18T05:31:32.964Z,87.4584
2023-04-18T05:32:33.538Z,87.0950
2023-04-18T05:33:34.064Z,87.0732
2023-04-18T05:34:38.940Z,86.4873
2023-04-18T05:35:35.027Z,86.8143
2023-04-18T05:36:35.620Z,86.8395
2023-04-18T05:37:36.259Z,86.4984
2023-04-18T05:38:36.895Z,86.8343
2023-04-18T05:39:37.483Z,87.0638
2023-04-18T05:40:38.162Z,87.5228
2023-04-18T05:41:38.702Z,86.9648
2023-04-18T05:42:39.318Z,86.6419
2023-04-18T05:43:40.180Z,86.8976
2023-04-18T05:44:41.572Z,87.3635
2023-04-18T05:45:42.150Z,86.2225
2023-04-18T05:46:42.939Z,86.7848
2023-04-18T05:47:43.540Z,86.7506
2023-04-18T05:48:44.211Z,86.8169
2023-04-18T05:49:44.805Z,86.8840
2023-04-18T05:50:45.443Z,86.6413
2023-04-18T05:51:46.078Z,87.1951
2023-04-18T05:52:46.623Z,88.2955
2023-04-18T05:53:47.211Z,87.3887
2023-04-18T05:54:47.783Z,86.9388
2023-04-18T05:55:48.344Z,86.7882
2023-04-18T05:56:49.085Z,87.2224
2023-04-18T05:57:49.923Z,86.3683
2023-04-18T05:58:50.540Z,87.8559
2023-04-18T05:59:51.115Z,86.6719
2023-04-18T06:00:51.684Z,86.0929
2023-04-18T06:01:52.451Z,86.1073
2023-04-18T06:02:53.689Z,86.1632
2023-04-18T06:03:54.999Z,87.5238
2023-04-18T06:04:56.382Z,87.3466
2023-04-18T06:05:57.453Z,86.3756
2023-04-18T06:06:58.388Z,86.0299
2023-04-18T06:07:58.984Z,86.1755
2023-04-18T06:08:59.614Z,86.4006
2023-04-18T06:10:00.120Z,86.2046
2023-04-18T06:11:00.647Z,86.3673
2023-04-18T06:12:01.195Z,86.2425
2023-04-18T06:13:01.772Z,86.5931
2023-04-18T06:14:02.480Z,86.2255
2023-04-18T06:15:03.107Z,86.5258
2023-04-18T06:16:03.782Z,86.1885
2023-04-18T06:17:04.326Z,85.9384
2023-04-18T06:18:05.061Z,85.7603
2023-04-18T06:19:05.650Z,86.1028
2023-04-18T06:20:06.216Z,85.7426
2023-04-18T06:21:06.769Z,85.6668
2023-04-18T06:22:07.297Z,85.8294
2023-04-18T06:23:07.838Z,86.7645
2023-04-18T06:24:08.402Z,85.7450
2023-04-18T06:25:08.996Z,85.4885
2023-04-18T06:26:09.525Z,86.0655
2023-04-18T06:27:30.231Z,86.1973
2023-04-18T06:28:10.546Z,85.8209
2023-04-18T06:29:11.175Z,85.3616
2023-04-18T06:30:11.732Z,86.4828
2023-04-18T06:31:12.549Z,86.7607
2023-04-18T06:32:13.080Z,86.2074
2023-04-18T06:33:13.655Z,86.2373
2023-04-18T06:34:14.832Z,85.9963
2023-04-18T06:35:15.630Z,86.2472
2023-04-18T06:36:16.174Z,85.8295
2023-04-18T06:37:16.704Z,85.6259
2023-04-18T06:38:17.306Z,85.5655
2023-04-18T06:39:17.925Z,85.9665
2023-04-18T06:40:18.521Z,85.4991
2023-04-18T06:41:19.067Z,85.9257
2023-04-18T06:42:22.927Z,86.7653
2023-04-18T06:43:21.228Z,86.3502
2023-04-18T06:44:21.792Z,85.7755
2023-04-18T06:45:22.343Z,86.1956
2023-04-18T06:46:23.383Z,86.2292
2023-04-18T06:47:23.978Z,85.8056
2023-04-18T06:48:24.507Z,85.8186
2023-04-18T06:49:26.992Z,84.9353
2023-04-18T06:50:25.172Z,84.8766
2023-04-18T06:51:25.722Z,85.5957
2023-04-18T06:52:26.235Z,86.0141
2023-04-18T06:53:26.754Z,85.6039
2023-04-18T06:54:27.409Z,85.7654
2023-04-18T06:55:27.981Z,85.3140
2023-04-18T06:56:28.497Z,85.3162
2023-04-18T06:57:29.010Z,85.6969
2023-04-18T06:58:29.566Z,86.1109
2023-04-18T06:59:30.451Z,85.2453
2023-04-18T07:00:30.980Z,85.2475
2023-04-18T07:01:31.695Z,85.2677
2023-04-18T07:02:32.666Z,85.2235
2023-04-18T07:03:34.416Z,85.3068
2023-04-18T07:04:35.102Z,85.3949
2023-04-18T07:05:35.713Z,85.4614
2023-04-18T07:06:36.350Z,85.4910
2023-04-18T07:07:36.914Z,85.7091
2023-04-18T07:08:37.632Z,85.7089
2023-04-18T07:09:38.266Z,85.9012
2023-04-18T07:10:38.829Z,86.1860
2023-04-18T07:11:39.408Z,85.4011
2023-04-18T07:12:41.015Z,85.3926
2023-04-18T07:13:41.621Z,85.8210
2023-04-18T07:14:42.245Z,84.9894
2023-04-18T07:15:42.786Z,85.2578
2023-04-18T07:16:43.464Z,85.3731
2023-04-18T07:17:44.036Z,85.2960
2023-04-18T07:18:44.635Z,85.2158
2023-04-18T07:19:45.250Z,84.8672
2023-04-18T07:20:45.816Z,85.1876
2023-04-18T07:21:46.536Z,84.9614
2023-04-18T07:22:47.133Z,84.3931
2023-04-18T07:23:47.729Z,85.0615
2023-04-18T07:24:48.352Z,84.9328
2023-04-18T07:25:48.952Z,84.4757
2023-04-18T07:26:49.490Z,84.4880
2023-04-18T07:27:50.058Z,84.3869
2023-04-18T07:28:50.641Z,84.5341
2023-04-18T07:29:51.238Z,84.1915
2023-04-18T07:30:51.882Z,83.6929
2023-04-18T07:31:52.453Z,84.3988
2023-04-18T07:32:53.183Z,84.2423
2023-04-18T07:33:53.704Z,84.0606
2023-04-18T07:34:54.302Z,84.2332
2023-04-18T07:35:54.847Z,83.4643
2023-04-18T07:36:55.424Z,83.5745
2023-04-18T07:37:56.001Z,83.7590
2023-04-18T07:38:56.557Z,83.9422
2023-04-18T07:39:57.102Z,83.5410
2023-04-18T07:40:57.677Z,83.4248
2023-04-18T07:41:58.208Z,83.7254
2023-04-18T07:42:58.768Z,83.9874
2023-04-18T07:43:59.376Z,83.4809
2023-04-18T07:44:59.983Z,83.4595
2023-04-18T07:46:00.608Z,83.5846
2023-04-18T07:47:01.122Z,83.4297
2023-04-18T07:48:01.813Z,83.7631
2023-04-18T07:49:02.537Z,83.6938
2023-04-18T07:50:03.085Z,82.9651
2023-04-18T07:51:03.567Z,83.2164
2023-04-18T07:52:04.151Z,82.6714
2023-04-18T07:53:04.677Z,82.2522
2023-04-18T07:54:05.222Z,82.0695
2023-04-18T07:55:05.837Z,82.3567
2023-04-18T07:56:06.398Z,82.0785
2023-04-18T07:57:06.975Z,81.3556
2023-04-18T07:58:07.492Z,81.7058
2023-04-18T07:59:08.090Z,82.0725
2023-04-18T08:00:08.644Z,81.5921
2023-04-18T08:01:09.235Z,80.9086
2023-04-18T08:02:09.860Z,81.1076
2023-04-18T08:03:10.663Z,80.7579
2023-04-18T08:04:12.027Z,81.7431
2023-04-18T08:05:12.930Z,80.3154
2023-04-18T08:06:13.454Z,79.6923
2023-04-18T08:07:13.979Z,79.5627
2023-04-18T08:08:14.536Z,80.1486
2023-04-18T08:09:16.021Z,79.5262
2023-04-18T08:10:16.809Z,81.0189
2023-04-18T08:11:17.367Z,81.2487
2023-04-18T08:12:17.891Z,80.1020
2023-04-18T08:13:18.417Z,79.8954
2023-04-18T08:14:19.025Z,80.0822
2023-04-18T08:15:19.508Z,79.9199
2023-04-18T08:16:20.091Z,80.1436
2023-04-18T08:17:20.707Z,79.4781
2023-04-18T08:18:21.251Z,78.0880
2023-04-18T08:19:21.753Z,77.7640
2023-04-18T08:20:22.366Z,78.0603
2023-04-18T08:21:23.046Z,78.2428
2023-04-18T08:22:23.551Z,78.4065
2023-04-18T08:23:24.040Z,78.8923
2023-04-18T08:24:24.543Z,78.3036
2023-04-18T08:25:25.074Z,77.9049
2023-04-18T08:26:25.582Z,78.8848
2023-04-18T08:27:26.116Z,79.3563
2023-04-18T08:28:26.591Z,79.9332
2023-04-18T08:29:27.126Z,79.3887
2023-04-18T08:30:27.676Z,79.5627
2023-04-18T08:31:28.314Z,79.8358
2023-04-18T08:32:28.963Z,79.8572
2023-04-18T08:33:29.456Z,80.5064
2023-04-18T08:34:30.056Z,80.1189
2023-04-18T08:35:30.692Z,80.3911
2023-04-18T08:36:31.276Z,80.7043
2023-04-18T08:37:31.806Z,81.1753
2023-04-18T08:38:32.335Z,80.8757
2023-04-18T08:39:32.890Z,81.0585
2023-04-18T08:40:33.477Z,81.3091
2023-04-18T08:41:34.007Z,80.9183
2023-04-18T08:42:34.536Z,81.2766
2023-04-18T08:43:35.029Z,81.1031
2023-04-18T08:44:35.535Z,80.5035
2023-04-18T08:45:36.343Z,80.2281
2023-04-18T08:46:36.833Z,80.4141
2023-04-18T08:47:37.480Z,80.2548
2023-04-18T08:48:38.062Z,80.1334
2023-04-18T08:49:38.576Z,80.5312
2023-04-18T08:50:39.160Z,80.4288
2023-04-18T08:51:39.695Z,80.4420
2023-04-18T08:52:40.253Z,79.7917
2023-04-18T08:53:40.805Z,79.8400
2023-04-18T08:54:41.295Z,78.5651
2023-04-18T08:55:41.836Z,78.4073
2023-04-18T08:56:42.356Z,78.6634
2023-04-18T08:57:42.886Z,78.0720
2023-04-18T08:58:43.441Z,78.6750
2023-04-18T08:59:47.180Z,79.2985
2023-04-18T09:00:44.985Z,78.0154
2023-04-18T09:01:45.613Z,79.0569
2023-04-18T09:02:46.293Z,79.4968
2023-04-18T09:03:46.902Z,78.9014
2023-04-18T09:04:47.477Z,78.3647
2023-04-18T09:05:48.028Z,78.2780
2023-04-18T09:06:48.540Z,78.0782
2023-04-18T09:07:49.080Z,77.8108
2023-04-18T09:08:49.626Z,78.1541
2023-04-18T09:09:50.212Z,78.0022
2023-04-18T09:10:50.814Z,78.5986
2023-04-18T09:11:51.359Z,77.7947
2023-04-18T09:12:51.854Z,77.8212
2023-04-18T09:13:52.412Z,77.5813
2023-04-18T09:14:52.968Z,77.3573
2023-04-18T09:15:53.533Z,76.6752
2023-04-18T09:16:54.292Z,76.4835
2023-04-18T09:17:54.831Z,76.5919
2023-04-18T09:18:55.326Z,76.5996
2023-04-18T09:19:55.843Z,77.4690
2023-04-18T09:20:56.409Z,78.3840
2023-04-18T09:21:56.945Z,78.9118
2023-04-18T09:22:57.534Z,79.3970
2023-04-18T09:23:58.044Z,78.7339
2023-04-18T09:24:58.600Z,79.0244
2023-04-18T09:25:59.154Z,79.2243
2023-04-18T09:26:59.677Z,79.3578
2023-04-18T09:28:00.298Z,79.2626
2023-04-18T09:29:00.891Z,79.0492
2023-04-18T09:30:01.420Z,78.4156
2023-04-18T09:31:02.192Z,78.3629
2023-04-18T09:32:02.723Z,78.1443
2023-04-18T09:33:04.227Z,77.9098
2023-04-18T09:34:04.765Z,77.7260
2023-04-18T09:35:05.536Z,77.3549
2023-04-18T09:36:07.137Z,76.9305
2023-04-18T09:37:07.806Z,77.1870
2023-04-18T09:38:08.396Z,77.3319
2023-04-18T09:39:08.959Z,77.0924
2023-04-18T09:40:09.658Z,77.6391
2023-04-18T09:41:10.284Z,77.8693
2023-04-18T09:42:10.856Z,78.0753
2023-04-18T09:43:11.343Z,77.8338
2023-04-18T09:44:15.824Z,77.0282
2023-04-18T09:45:14.209Z,76.1781
2023-04-18T09:46:14.841Z,76.6649
2023-04-18T09:47:16.343Z,75.9920
2023-04-18T09:48:16.813Z,75.9050
2023-04-18T09:49:18.657Z,76.2294
2023-04-18T09:50:19.336Z,76.6959
2023-04-18T09:51:19.936Z,77.4890
2023-04-18T09:52:20.453Z,77.6757
2023-04-18T09:53:21.645Z,77.9615
2023-04-18T09:54:22.177Z,77.9020
2023-04-18T09:55:22.898Z,78.1884
2023-04-18T09:56:23.680Z,78.6921
2023-04-18T09:57:24.274Z,78.8620
2023-04-18T09:58:24.771Z,77.8610
2023-04-18T09:59:25.356Z,77.4093
2023-04-18T10:00:25.899Z,77.1662
2023-04-18T10:01:26.574Z,76.0148
2023-04-18T10:02:27.409Z,75.9735
2023-04-18T10:03:28.182Z,76.2116
2023-04-18T10:04:28.884Z,76.1179
2023-04-18T10:05:29.537Z,75.3397
2023-04-18T10:06:30.118Z,74.5943
2023-04-18T10:07:30.613Z,74.6132
2023-04-18T10:08:31.173Z,74.4256
2023-04-18T10:09:31.736Z,73.7155
2023-04-18T10:10:32.412Z,73.4435
2023-04-18T10:11:32.942Z,73.8729
2023-04-18T10:12:33.445Z,74.5918
2023-04-18T10:13:33.963Z,74.4606
2023-04-18T10:14:34.482Z,74.4848
2023-04-18T10:15:35.096Z,74.6060
2023-04-18T10:16:36.860Z,74.3927
2023-04-18T10:17:37.433Z,72.9782
2023-04-18T10:18:38.205Z,72.6850
2023-04-18T10:19:38.751Z,73.0800
2023-04-18T10:20:39.228Z,72.8445
2023-04-18T10:21:39.789Z,73.5834
2023-04-18T10:22:40.264Z,73.8618
2023-04-18T10:23:40.904Z,72.8765
2023-04-18T10:24:41.412Z,72.3755
2023-04-18T10:25:43.421Z,71.9449
2023-04-18T10:27:19.174Z,70.0162
2023-04-18T10:28:20.123Z,69.9483
2023-04-18T10:29:21.043Z,70.6978
2023-04-18T10:30:22.180Z,70.2782
2023-04-18T10:31:23.326Z,71.8790
2023-04-18T10:32:24.403Z,73.3069
2023-04-18T10:33:32.388Z,73.7345
2023-04-18T10:34:27.169Z,73.9204
2023-04-18T10:35:28.185Z,74.8663
2023-04-18T10:36:29.205Z,75.4739
2023-04-18T10:37:30.185Z,75.7428
2023-04-18T10:38:31.270Z,75.9664
2023-04-18T10:39:32.215Z,76.4638
2023-04-18T10:40:33.237Z,75.7611
2023-04-18T10:41:34.169Z,75.4805
2023-04-18T10:42:35.156Z,75.2308
2023-04-18T10:43:36.172Z,73.9943
2023-04-18T10:44:37.136Z,74.6931
2023-04-18T10:45:38.120Z,74.2181
2023-04-18T10:46:39.179Z,74.1324
2023-04-18T10:47:40.636Z,74.0380
2023-04-18T10:48:41.654Z,74.4601
2023-04-18T10:49:42.620Z,74.5680
2023-04-18T10:50:43.576Z,73.5340
2023-04-18T10:51:44.530Z,73.3013
2023-04-18T10:52:45.467Z,73.1570
2023-04-18T10:53:46.418Z,72.9909
2023-04-18T10:54:47.291Z,73.9639
2023-04-18T10:55:48.208Z,74.4666
2023-04-18T10:56:49.130Z,73.9641
2023-04-18T10:57:50.096Z,74.2801
2023-04-18T10:58:51.091Z,74.0248
2023-04-18T10:59:52.100Z,74.0103
2023-04-18T11:00:53.169Z,74.1989
2023-04-18T11:01:54.096Z,74.2306
2023-04-18T11:02:55.424Z,73.2403
2023-04-18T11:03:56.688Z,72.6127
2023-04-18T11:04:57.646Z,72.2329
2023-04-18T11:05:59.016Z,72.1415
2023-04-18T11:07:00.086Z,72.1794
2023-04-18T11:08:01.252Z,71.0549
2023-04-18T11:09:02.625Z,71.3534
2023-04-18T11:10:03.554Z,72.7280
2023-04-18T11:11:04.492Z,73.6296
2023-04-18T11:12:05.432Z,73.3394
2023-04-18T11:13:06.376Z,73.1108
2023-04-18T11:14:07.541Z,73.1324
2023-04-18T11:15:08.543Z,73.7280
2023-04-18T11:16:09.459Z,73.6463
2023-04-18T11:17:10.384Z,72.7845
2023-04-18T11:18:11.350Z,72.5474
2023-04-18T11:19:12.224Z,71.7363
2023-04-18T11:20:13.203Z,71.8259
2023-04-18T11:21:14.110Z,71.7360
2023-04-18T11:22:14.998Z,71.6304
2023-04-18T11:23:15.938Z,71.4624
2023-04-18T11:24:16.887Z,71.0673
2023-04-18T11:25:17.827Z,69.8275
2023-04-18T11:26:18.697Z,70.2280
2023-04-18T11:27:19.604Z,71.2423
2023-04-18T11:28:20.498Z,72.7032
2023-04-18T11:29:21.399Z,72.8060
2023-04-18T11:30:22.316Z,72.7938
2023-04-18T11:31:23.327Z,72.6509
2023-04-18T11:32:24.580Z,72.5255
2023-04-18T11:33:25.519Z,72.5708
2023-04-18T11:34:26.479Z,72.5842
2023-04-18T11:35:27.420Z,72.7132
2023-04-18T11:36:28.349Z,72.4678
2023-04-18T11:37:29.263Z,72.1791
2023-04-18T11:38:30.176Z,72.1418
2023-04-18T11:39:31.096Z,71.3042
2023-04-18T11:40:32.035Z,71.3116
2023-04-18T11:41:32.919Z,71.4275
2023-04-18T11:42:33.817Z,71.8030
2023-04-18T11:43:34.749Z,71.1428
2023-04-18T11:44:36.798Z,69.4829
2023-04-18T11:45:37.815Z,69.2080
2023-04-18T11:46:38.938Z,69.3867
2023-04-18T11:47:39.909Z,68.9642
2023-04-18T11:48:40.788Z,68.3323
2023-04-18T11:49:41.660Z,64.6826
2023-04-18T11:50:42.526Z,62.7931
2023-04-18T11:51:43.359Z,62.7012
2023-04-18T11:52:44.211Z,62.4783
2023-04-18T11:53:45.089Z,61.5657
2023-04-18T11:54:45.897Z,63.4717
2023-04-18T11:55:46.745Z,60.2786
2023-04-18T11:56:47.535Z,59.5727
2023-04-18T11:57:48.375Z,58.6763
2023-04-18T11:58:49.278Z,60.6366
2023-04-18T11:59:50.128Z,60.3522
2023-04-18T12:00:50.970Z,62.7687
2023-04-18T12:01:53.638Z,65.9610
2023-04-18T12:02:52.550Z,66.3226
2023-04-18T12:03:54.047Z,66.2352
2023-04-18T12:04:56.414Z,65.8831
2023-04-18T12:05:55.706Z,65.0249
2023-04-18T12:06:56.760Z,63.8230
2023-04-18T12:07:57.614Z,64.7066
2023-04-18T12:08:58.461Z,63.3989
2023-04-18T12:09:59.253Z,61.6435
2023-04-18T12:11:00.125Z,60.5308
2023-04-18T12:12:00.980Z,61.2918
2023-04-18T12:13:01.755Z,63.2906
2023-04-18T12:14:04.507Z,64.0919